Eizo Maru — JD2944 — position and weather

sailwx.info

Track history (hours):
 
Tides and Currents Weather Stations Pressure Air Temp Water Temp Dewpoint Dewpoint Depression Visibility Wind Speed Wind Dir Waves Ship Positions

Eizo Maru

Last reported at 2017-Apr-24 09:07 UTC. Time now 2017-Apr-26 21:28 UTC.
Position N 34°56' E 139°43'.

Length 80 m; draft 4 m.

Type: Tanker. MMSI: 431000976.

Date/timePositionNaut miles runAvg speedWind from/ knotsBaromVisibWave heightAir tempDewpointWater temp
2017-Apr-24 09:07N 34°56' E 139°43'213.0
2017-Apr-24 08:59N 34°58' E 139°43'713.3
2017-Apr-24 08:29N 35°04' E 139°44'613.3
2017-Apr-24 08:01N 35°11' E 139°45'612.0
2017-Apr-24 07:29N 35°17' E 139°45'612.9
2017-Apr-24 07:00N 35°22' E 139°41'2 4.4
2017-Apr-24 06:28N 35°24' E 139°40'0 0.0
2017-Apr-24 05:58N 35°24' E 139°40'0 0.0
2017-Apr-24 05:31N 35°24' E 139°40'0 0.0
2017-Apr-24 04:58N 35°24' E 139°40'0 0.0
2017-Apr-24 04:31N 35°24' E 139°40'0 0.6
2017-Apr-24 04:00N 35°24' E 139°40'2 3.1
2017-Apr-24 03:30N 35°23' E 139°41'5 9.5
2017-Apr-24 03:00N 35°28' E 139°40'1 1.7
2017-Apr-24 02:30N 35°29' E 139°40'0 0.0
2017-Apr-24 02:00N 35°29' E 139°40'0 0.0
2017-Apr-24 01:30N 35°29' E 139°40'0 0.0
2017-Apr-24 01:00N 35°29' E 139°40'0 0.0
2017-Apr-24 00:30N 35°29' E 139°40'0 0.0
2017-Apr-24 00:00N 35°29' E 139°40'0 0.0
2017-Apr-23 23:30N 35°29' E 139°40'0 0.1
2017-Apr-23 23:00N 35°29' E 139°40'3 5.0
2017-Apr-23 22:30N 35°27' E 139°42'5 9.1
2017-Apr-23 22:00N 35°27' E 139°47'2 3.4
2017-Apr-23 21:29N 35°29' E 139°49'0 0.0
2017-Apr-23 20:59N 35°29' E 139°49'0 0.0
2017-Apr-23 20:29N 35°29' E 139°49'0 0.0
2017-Apr-23 19:59N 35°29' E 139°49'0 0.1
2017-Apr-23 19:29N 35°29' E 139°49'0 0.0
2017-Apr-23 18:59N 35°29' E 139°49'0 0.0
2017-Apr-23 18:29N 35°29' E 139°49'0 0.0
2017-Apr-23 17:59N 35°29' E 139°49'0 0.0
2017-Apr-23 17:29N 35°29' E 139°49'0 0.0
2017-Apr-23 16:59N 35°29' E 139°49'0 0.0
2017-Apr-23 16:29N 35°29' E 139°49'0 0.0
2017-Apr-23 15:59N 35°29' E 139°49'0 0.0
2017-Apr-23 15:29N 35°29' E 139°49'0 0.0
2017-Apr-23 14:59N 35°29' E 139°49'0 0.0
2017-Apr-23 13:59N 35°29' E 139°49'0 0.0
2017-Apr-23 13:29N 35°29' E 139°49'0 0.0
2017-Apr-23 12:59N 35°29' E 139°49'0 0.0
2017-Apr-23 12:29N 35°29' E 139°49'0 0.0
2017-Apr-23 11:59N 35°29' E 139°49'0 0.0
2017-Apr-23 11:29N 35°29' E 139°49'0 0.0
2017-Apr-23 10:59N 35°29' E 139°49'0 0.0
2017-Apr-23 10:29N 35°29' E 139°49'0 0.0
2017-Apr-23 09:59N 35°29' E 139°49'0 0.0
2017-Apr-23 09:29N 35°29' E 139°49'0 0.0
2017-Apr-23 08:59N 35°29' E 139°49'0 0.0
2017-Apr-23 08:29N 35°29' E 139°49'0 0.0
2017-Apr-23 07:59N 35°29' E 139°49'0 0.0
2017-Apr-23 07:26N 35°29' E 139°49'0 0.0
2017-Apr-23 06:59N 35°29' E 139°49'0 0.0
2017-Apr-23 06:29N 35°29' E 139°49'0 0.0
2017-Apr-23 05:56N 35°29' E 139°49'0 0.0
2017-Apr-23 05:29N 35°29' E 139°49'0 0.0
2017-Apr-23 04:59N 35°29' E 139°49'0 0.0
2017-Apr-23 04:29N 35°29' E 139°49'0 0.0
2017-Apr-23 03:59N 35°29' E 139°49'0 0.0
2017-Apr-23 03:29N 35°29' E 139°49'3 6.2
2017-Apr-23 03:00N 35°30' E 139°46'0 0.0
2017-Apr-23 01:13N 35°30' E 139°46'0 0.0
2017-Apr-23 00:43N 35°30' E 139°46'0 0.0
2017-Apr-23 00:25N 35°30' E 139°46'0 0.0
2017-Apr-22 23:49N 35°30' E 139°46'0 0.0
2017-Apr-22 23:25N 35°30' E 139°46'0 0.0
2017-Apr-22 22:43N 35°30' E 139°46'0 0.0
2017-Apr-22 22:13N 35°30' E 139°46'0 0.0
2017-Apr-22 21:49N 35°30' E 139°46'0 0.0
2017-Apr-22 21:25N 35°30' E 139°46'0 0.0
2017-Apr-22 20:55N 35°30' E 139°46'0 0.0
2017-Apr-22 20:25N 35°30' E 139°46'0 0.0
2017-Apr-22 19:55N 35°30' E 139°46'0 0.0
2017-Apr-22 19:22N 35°30' E 139°46'0 0.0
2017-Apr-22 18:55N 35°30' E 139°46'0 0.0
2017-Apr-22 18:28N 35°30' E 139°46'0 0.0
2017-Apr-22 17:55N 35°30' E 139°46'0 0.0
2017-Apr-22 17:28N 35°30' E 139°46'0 0.0
2017-Apr-22 16:55N 35°30' E 139°46'0 0.0
2017-Apr-22 16:28N 35°30' E 139°46'0 0.0
2017-Apr-22 15:55N 35°30' E 139°46'0 0.0
2017-Apr-22 15:28N 35°30' E 139°46'0 0.0
2017-Apr-22 14:49N 35°30' E 139°46'0 0.0
2017-Apr-22 14:25N 35°30' E 139°46'0 0.0
2017-Apr-22 13:28N 35°30' E 139°46'0 0.0
2017-Apr-22 12:58N 35°30' E 139°46'0 0.0
2017-Apr-22 12:25N 35°30' E 139°46'0 0.0
2017-Apr-22 11:55N 35°30' E 139°46'0 0.0
2017-Apr-22 11:25N 35°30' E 139°46'0 0.0
2017-Apr-22 10:55N 35°30' E 139°46'0 0.0
2017-Apr-22 10:25N 35°30' E 139°46'0 0.0
2017-Apr-22 09:55N 35°30' E 139°46'0 0.0
2017-Apr-22 09:25N 35°30' E 139°46'0 0.0
2017-Apr-22 08:31N 35°30' E 139°46'0 0.0
2017-Apr-22 08:25N 35°30' E 139°46'0 0.0
2017-Apr-22 04:31N 35°30' E 139°46'0 0.0
2017-Apr-22 04:13N 35°30' E 139°46'0 0.0
2017-Apr-22 01:34N 35°30' E 139°46'0 0.0
2017-Apr-22 01:19N 35°30' E 139°46'0 0.0
2017-Apr-22 00:55N 35°30' E 139°46'0 0.0
2017-Apr-22 00:28N 35°30' E 139°46'0 0.0
2017-Apr-21 23:58N 35°30' E 139°46'0 0.0
2017-Apr-21 23:22N 35°30' E 139°46'0 0.1
2017-Apr-21 23:00N 35°30' E 139°46'3 5.9
2017-Apr-21 22:30N 35°29' E 139°49'0 0.7
2017-Apr-21 21:58N 35°29' E 139°49'0 0.1
2017-Apr-21 21:28N 35°29' E 139°49'4 8.2
2017-Apr-21 21:00N 35°25' E 139°47'612.5
2017-Apr-21 20:30N 35°19' E 139°44'612.0
2017-Apr-21 20:00N 35°14' E 139°47'612.7
2017-Apr-21 19:30N 35°08' E 139°46'713.1
2017-Apr-21 19:00N 35°01' E 139°44'4 0.1
2017-Apr-20 12:48N 34°57' E 139°44'412.9
2017-Apr-20 12:30N 35°01' E 139°43'713.3
2017-Apr-20 12:00N 35°07' E 139°44'713.2
2017-Apr-20 11:30N 35°13' E 139°46'612.4
2017-Apr-20 11:01N 35°19' E 139°43'611.7
2017-Apr-20 10:30N 35°24' E 139°40'0 0.9
2017-Apr-20 10:00N 35°25' E 139°39'0 0.0
2017-Apr-20 09:29N 35°25' E 139°39'0 0.0
2017-Apr-20 08:59N 35°25' E 139°39'0 0.0
2017-Apr-20 08:29N 35°25' E 139°39'0 0.0
2017-Apr-20 07:59N 35°25' E 139°39'0 0.0
2017-Apr-20 07:29N 35°25' E 139°39'0 0.0
2017-Apr-20 06:59N 35°25' E 139°39'0 0.0
2017-Apr-20 06:29N 35°25' E 139°39'0 0.0
2017-Apr-20 05:59N 35°25' E 139°39'0 0.0
2017-Apr-20 05:29N 35°25' E 139°39'0 0.0
2017-Apr-20 05:00N 35°25' E 139°39'2 4.5
2017-Apr-20 04:30N 35°23' E 139°41'0 0.0
2017-Apr-20 03:59N 35°23' E 139°41'0 0.0
2017-Apr-20 03:29N 35°23' E 139°41'0 0.0
2017-Apr-20 02:56N 35°23' E 139°41'0 0.0
2017-Apr-20 02:29N 35°23' E 139°41'0 0.0
2017-Apr-20 01:59N 35°23' E 139°41'0 0.0
2017-Apr-20 01:29N 35°23' E 139°41'0 0.0
2017-Apr-20 00:59N 35°23' E 139°41'0 0.0
2017-Apr-20 00:29N 35°23' E 139°41'0 0.0
2017-Apr-19 23:59N 35°23' E 139°41'0 0.0
2017-Apr-19 23:29N 35°23' E 139°41'0 0.0
2017-Apr-19 22:56N 35°23' E 139°41'0 0.0
2017-Apr-19 22:29N 35°23' E 139°41'0 0.1
2017-Apr-19 22:00N 35°23' E 139°41'611.2
2017-Apr-19 21:30N 35°18' E 139°45'612.1
2017-Apr-19 21:00N 35°12' E 139°47'713.1
2017-Apr-19 20:30N 35°06' E 139°44'612.9
2017-Apr-19 20:00N 35°02' E 139°38'713.2
2017-Apr-19 19:27N 34°58' E 139°31'22911.1
2017-Apr-18 22:49N 34°04' E 135°01'413.6
2017-Apr-18 22:30N 34°08' E 135°00'1512.0
2017-Apr-18 21:15N 34°23' E 135°03'4 0.9
2017-Apr-18 16:42N 34°24' E 135°08'0 0.0
2017-Apr-18 16:30N 34°24' E 135°08'0 0.0
2017-Apr-18 11:54N 34°24' E 135°08'511.9
2017-Apr-18 11:30N 34°29' E 135°07'714.1
2017-Apr-18 11:01N 34°35' E 135°04'  
2017-Apr-16 05:43N 34°59' E 139°25'311.6
2017-Apr-16 05:28N 35°00' E 139°28'612.0
2017-Apr-16 04:58N 35°04' E 139°34'612.3
2017-Apr-16 04:30N 35°06' E 139°40'612.5
2017-Apr-16 04:00N 35°12' E 139°45'611.5
2017-Apr-16 03:30N 35°17' E 139°45'612.7
2017-Apr-16 03:00N 35°23' E 139°41'3 5.8
2017-Apr-16 02:30N 35°24' E 139°38'0 0.0
2017-Apr-16 01:59N 35°24' E 139°38'0 0.0
2017-Apr-16 01:29N 35°24' E 139°38'0 0.0
2017-Apr-16 00:56N 35°24' E 139°38'0 0.0
2017-Apr-16 00:26N 35°24' E 139°38'0 0.0
2017-Apr-15 23:56N 35°24' E 139°38'0 0.0
2017-Apr-15 23:23N 35°24' E 139°38'1 1.7
2017-Apr-15 23:00N 35°24' E 139°39'2 4.2
2017-Apr-15 22:30N 35°23' E 139°40'0 0.0
2017-Apr-15 21:55N 35°23' E 139°40'0 0.0
2017-Apr-15 21:28N 35°23' E 139°40'0 0.0
2017-Apr-15 20:58N 35°23' E 139°40'0 0.0
2017-Apr-15 20:28N 35°23' E 139°40'0 0.0
2017-Apr-15 19:58N 35°23' E 139°40'0 0.0
2017-Apr-15 19:28N 35°23' E 139°40'0 0.0
2017-Apr-15 18:58N 35°23' E 139°40'0 0.0
2017-Apr-15 18:28N 35°23' E 139°40'0 0.1
2017-Apr-15 17:58N 35°23' E 139°40'0 0.0
2017-Apr-15 17:28N 35°23' E 139°40'0 0.0
2017-Apr-15 16:58N 35°23' E 139°40'0 0.1
2017-Apr-15 16:28N 35°23' E 139°40'0 0.0
2017-Apr-15 15:58N 35°23' E 139°40'0 0.0
2017-Apr-15 15:25N 35°23' E 139°40'0 0.1
2017-Apr-15 14:58N 35°23' E 139°40'0 0.0
2017-Apr-15 14:28N 35°23' E 139°40'0 0.0
2017-Apr-15 13:25N 35°23' E 139°40'0 0.0
2017-Apr-15 12:58N 35°23' E 139°40'0 0.0
2017-Apr-15 12:28N 35°23' E 139°40'0 0.0
2017-Apr-15 11:58N 35°23' E 139°40'0 0.0
2017-Apr-15 11:28N 35°23' E 139°40'0 0.0
2017-Apr-15 10:58N 35°23' E 139°40'0 0.0
2017-Apr-15 10:28N 35°23' E 139°40'0 0.0
2017-Apr-15 09:58N 35°23' E 139°40'0 0.4
2017-Apr-15 09:31N 35°23' E 139°40'611.9
2017-Apr-15 09:00N 35°18' E 139°45'612.1
2017-Apr-15 08:30N 35°12' E 139°47'713.6
2017-Apr-15 08:00N 35°06' E 139°44'713.4
2017-Apr-15 07:30N 35°01' E 139°38'714.5
2017-Apr-15 07:00N 34°57' E 139°30'  
Track history (hours):
 
Tides and Currents Weather Stations Pressure Air Temp Water Temp Dewpoint Dewpoint Depression Visibility Wind Speed Wind Dir Waves Ship Positions

Eizo Maru

Last reported at 2017-Apr-24 09:07 UTC. Time now 2017-Apr-26 21:28 UTC.
Position N 34°56' E 139°43'.

Length 80 m; draft 4 m.

Type: Tanker. MMSI: 431000976.

Date/timePositionNaut miles runAvg speedWind from/ knotsBaromVisibWave heightAir tempDewpointWater temp
2017-Apr-24 09:07N 34°56' E 139°43'213.0
2017-Apr-24 08:59N 34°58' E 139°43'713.3
2017-Apr-24 08:29N 35°04' E 139°44'613.3
2017-Apr-24 08:01N 35°11' E 139°45'612.0
2017-Apr-24 07:29N 35°17' E 139°45'612.9
2017-Apr-24 07:00N 35°22' E 139°41'2 4.4
2017-Apr-24 06:28N 35°24' E 139°40'0 0.0
2017-Apr-24 05:58N 35°24' E 139°40'0 0.0
2017-Apr-24 05:31N 35°24' E 139°40'0 0.0
2017-Apr-24 04:58N 35°24' E 139°40'0 0.0
2017-Apr-24 04:31N 35°24' E 139°40'0 0.6
2017-Apr-24 04:00N 35°24' E 139°40'2 3.1
2017-Apr-24 03:30N 35°23' E 139°41'5 9.5
2017-Apr-24 03:00N 35°28' E 139°40'1 1.7
2017-Apr-24 02:30N 35°29' E 139°40'0 0.0
2017-Apr-24 02:00N 35°29' E 139°40'0 0.0
2017-Apr-24 01:30N 35°29' E 139°40'0 0.0
2017-Apr-24 01:00N 35°29' E 139°40'0 0.0
2017-Apr-24 00:30N 35°29' E 139°40'0 0.0
2017-Apr-24 00:00N 35°29' E 139°40'0 0.0
2017-Apr-23 23:30N 35°29' E 139°40'0 0.1
2017-Apr-23 23:00N 35°29' E 139°40'3 5.0
2017-Apr-23 22:30N 35°27' E 139°42'5 9.1
2017-Apr-23 22:00N 35°27' E 139°47'2 3.4
2017-Apr-23 21:29N 35°29' E 139°49'0 0.0
2017-Apr-23 20:59N 35°29' E 139°49'0 0.0
2017-Apr-23 20:29N 35°29' E 139°49'0 0.0
2017-Apr-23 19:59N 35°29' E 139°49'0 0.1
2017-Apr-23 19:29N 35°29' E 139°49'0 0.0
2017-Apr-23 18:59N 35°29' E 139°49'0 0.0
2017-Apr-23 18:29N 35°29' E 139°49'0 0.0
2017-Apr-23 17:59N 35°29' E 139°49'0 0.0
2017-Apr-23 17:29N 35°29' E 139°49'0 0.0
2017-Apr-23 16:59N 35°29' E 139°49'0 0.0
2017-Apr-23 16:29N 35°29' E 139°49'0 0.0
2017-Apr-23 15:59N 35°29' E 139°49'0 0.0
2017-Apr-23 15:29N 35°29' E 139°49'0 0.0
2017-Apr-23 14:59N 35°29' E 139°49'0 0.0
2017-Apr-23 13:59N 35°29' E 139°49'0 0.0
2017-Apr-23 13:29N 35°29' E 139°49'0 0.0
2017-Apr-23 12:59N 35°29' E 139°49'0 0.0
2017-Apr-23 12:29N 35°29' E 139°49'0 0.0
2017-Apr-23 11:59N 35°29' E 139°49'0 0.0
2017-Apr-23 11:29N 35°29' E 139°49'0 0.0
2017-Apr-23 10:59N 35°29' E 139°49'0 0.0
2017-Apr-23 10:29N 35°29' E 139°49'0 0.0
2017-Apr-23 09:59N 35°29' E 139°49'0 0.0
2017-Apr-23 09:29N 35°29' E 139°49'0 0.0
2017-Apr-23 08:59N 35°29' E 139°49'0 0.0
2017-Apr-23 08:29N 35°29' E 139°49'0 0.0
2017-Apr-23 07:59N 35°29' E 139°49'0 0.0
2017-Apr-23 07:26N 35°29' E 139°49'0 0.0
2017-Apr-23 06:59N 35°29' E 139°49'0 0.0
2017-Apr-23 06:29N 35°29' E 139°49'0 0.0
2017-Apr-23 05:56N 35°29' E 139°49'0 0.0
2017-Apr-23 05:29N 35°29' E 139°49'0 0.0
2017-Apr-23 04:59N 35°29' E 139°49'0 0.0
2017-Apr-23 04:29N 35°29' E 139°49'0 0.0
2017-Apr-23 03:59N 35°29' E 139°49'0 0.0
2017-Apr-23 03:29N 35°29' E 139°49'3 6.2
2017-Apr-23 03:00N 35°30' E 139°46'0 0.0
2017-Apr-23 01:13N 35°30' E 139°46'0 0.0
2017-Apr-23 00:43N 35°30' E 139°46'0 0.0
2017-Apr-23 00:25N 35°30' E 139°46'0 0.0
2017-Apr-22 23:49N 35°30' E 139°46'0 0.0
2017-Apr-22 23:25N 35°30' E 139°46'0 0.0
2017-Apr-22 22:43N 35°30' E 139°46'0 0.0
2017-Apr-22 22:13N 35°30' E 139°46'0 0.0
2017-Apr-22 21:49N 35°30' E 139°46'0 0.0
2017-Apr-22 21:25N 35°30' E 139°46'0 0.0
2017-Apr-22 20:55N 35°30' E 139°46'0 0.0
2017-Apr-22 20:25N 35°30' E 139°46'0 0.0
2017-Apr-22 19:55N 35°30' E 139°46'0 0.0
2017-Apr-22 19:22N 35°30' E 139°46'0 0.0
2017-Apr-22 18:55N 35°30' E 139°46'0 0.0
2017-Apr-22 18:28N 35°30' E 139°46'0 0.0
2017-Apr-22 17:55N 35°30' E 139°46'0 0.0
2017-Apr-22 17:28N 35°30' E 139°46'0 0.0
2017-Apr-22 16:55N 35°30' E 139°46'0 0.0
2017-Apr-22 16:28N 35°30' E 139°46'0 0.0
2017-Apr-22 15:55N 35°30' E 139°46'0 0.0
2017-Apr-22 15:28N 35°30' E 139°46'0 0.0
2017-Apr-22 14:49N 35°30' E 139°46'0 0.0
2017-Apr-22 14:25N 35°30' E 139°46'0 0.0
2017-Apr-22 13:28N 35°30' E 139°46'0 0.0
2017-Apr-22 12:58N 35°30' E 139°46'0 0.0
2017-Apr-22 12:25N 35°30' E 139°46'0 0.0
2017-Apr-22 11:55N 35°30' E 139°46'0 0.0
2017-Apr-22 11:25N 35°30' E 139°46'0 0.0
2017-Apr-22 10:55N 35°30' E 139°46'0 0.0
2017-Apr-22 10:25N 35°30' E 139°46'0 0.0
2017-Apr-22 09:55N 35°30' E 139°46'0 0.0
2017-Apr-22 09:25N 35°30' E 139°46'0 0.0
2017-Apr-22 08:31N 35°30' E 139°46'0 0.0
2017-Apr-22 08:25N 35°30' E 139°46'0 0.0
2017-Apr-22 04:31N 35°30' E 139°46'0 0.0
2017-Apr-22 04:13N 35°30' E 139°46'0 0.0
2017-Apr-22 01:34N 35°30' E 139°46'0 0.0
2017-Apr-22 01:19N 35°30' E 139°46'0 0.0
2017-Apr-22 00:55N 35°30' E 139°46'0 0.0
2017-Apr-22 00:28N 35°30' E 139°46'0 0.0
2017-Apr-21 23:58N 35°30' E 139°46'0 0.0
2017-Apr-21 23:22N 35°30' E 139°46'0 0.1
2017-Apr-21 23:00N 35°30' E 139°46'3 5.9
2017-Apr-21 22:30N 35°29' E 139°49'0 0.7
2017-Apr-21 21:58N 35°29' E 139°49'0 0.1
2017-Apr-21 21:28N 35°29' E 139°49'4 8.2
2017-Apr-21 21:00N 35°25' E 139°47'612.5
2017-Apr-21 20:30N 35°19' E 139°44'612.0
2017-Apr-21 20:00N 35°14' E 139°47'612.7
2017-Apr-21 19:30N 35°08' E 139°46'713.1
2017-Apr-21 19:00N 35°01' E 139°44'4 0.1
2017-Apr-20 12:48N 34°57' E 139°44'412.9
2017-Apr-20 12:30N 35°01' E 139°43'713.3
2017-Apr-20 12:00N 35°07' E 139°44'713.2
2017-Apr-20 11:30N 35°13' E 139°46'612.4
2017-Apr-20 11:01N 35°19' E 139°43'611.7
2017-Apr-20 10:30N 35°24' E 139°40'0 0.9
2017-Apr-20 10:00N 35°25' E 139°39'0 0.0
2017-Apr-20 09:29N 35°25' E 139°39'0 0.0
2017-Apr-20 08:59N 35°25' E 139°39'0 0.0
2017-Apr-20 08:29N 35°25' E 139°39'0 0.0
2017-Apr-20 07:59N 35°25' E 139°39'0 0.0
2017-Apr-20 07:29N 35°25' E 139°39'0 0.0
2017-Apr-20 06:59N 35°25' E 139°39'0 0.0
2017-Apr-20 06:29N 35°25' E 139°39'0 0.0
2017-Apr-20 05:59N 35°25' E 139°39'0 0.0
2017-Apr-20 05:29N 35°25' E 139°39'0 0.0
2017-Apr-20 05:00N 35°25' E 139°39'2 4.5
2017-Apr-20 04:30N 35°23' E 139°41'0 0.0
2017-Apr-20 03:59N 35°23' E 139°41'0 0.0
2017-Apr-20 03:29N 35°23' E 139°41'0 0.0
2017-Apr-20 02:56N 35°23' E 139°41'0 0.0
2017-Apr-20 02:29N 35°23' E 139°41'0 0.0
2017-Apr-20 01:59N 35°23' E 139°41'0 0.0
2017-Apr-20 01:29N 35°23' E 139°41'0 0.0
2017-Apr-20 00:59N 35°23' E 139°41'0 0.0
2017-Apr-20 00:29N 35°23' E 139°41'0 0.0
2017-Apr-19 23:59N 35°23' E 139°41'0 0.0
2017-Apr-19 23:29N 35°23' E 139°41'0 0.0
2017-Apr-19 22:56N 35°23' E 139°41'0 0.0
2017-Apr-19 22:29N 35°23' E 139°41'0 0.1
2017-Apr-19 22:00N 35°23' E 139°41'611.2
2017-Apr-19 21:30N 35°18' E 139°45'612.1
2017-Apr-19 21:00N 35°12' E 139°47'713.1
2017-Apr-19 20:30N 35°06' E 139°44'612.9
2017-Apr-19 20:00N 35°02' E 139°38'713.2
2017-Apr-19 19:27N 34°58' E 139°31'22911.1
2017-Apr-18 22:49N 34°04' E 135°01'413.6
2017-Apr-18 22:30N 34°08' E 135°00'1512.0
2017-Apr-18 21:15N 34°23' E 135°03'4 0.9
2017-Apr-18 16:42N 34°24' E 135°08'0 0.0
2017-Apr-18 16:30N 34°24' E 135°08'0 0.0
2017-Apr-18 11:54N 34°24' E 135°08'511.9
2017-Apr-18 11:30N 34°29' E 135°07'714.1
2017-Apr-18 11:01N 34°35' E 135°04'  
2017-Apr-16 05:43N 34°59' E 139°25'311.6
2017-Apr-16 05:28N 35°00' E 139°28'612.0
2017-Apr-16 04:58N 35°04' E 139°34'612.3
2017-Apr-16 04:30N 35°06' E 139°40'612.5
2017-Apr-16 04:00N 35°12' E 139°45'611.5
2017-Apr-16 03:30N 35°17' E 139°45'612.7
2017-Apr-16 03:00N 35°23' E 139°41'3 5.8
2017-Apr-16 02:30N 35°24' E 139°38'0 0.0
2017-Apr-16 01:59N 35°24' E 139°38'0 0.0
2017-Apr-16 01:29N 35°24' E 139°38'0 0.0
2017-Apr-16 00:56N 35°24' E 139°38'0 0.0
2017-Apr-16 00:26N 35°24' E 139°38'0 0.0
2017-Apr-15 23:56N 35°24' E 139°38'0 0.0
2017-Apr-15 23:23N 35°24' E 139°38'1 1.7
2017-Apr-15 23:00N 35°24' E 139°39'2 4.2
2017-Apr-15 22:30N 35°23' E 139°40'0 0.0
2017-Apr-15 21:55N 35°23' E 139°40'0 0.0
2017-Apr-15 21:28N 35°23' E 139°40'0 0.0
2017-Apr-15 20:58N 35°23' E 139°40'0 0.0
2017-Apr-15 20:28N 35°23' E 139°40'0 0.0
2017-Apr-15 19:58N 35°23' E 139°40'0 0.0
2017-Apr-15 19:28N 35°23' E 139°40'0 0.0
2017-Apr-15 18:58N 35°23' E 139°40'0 0.0
2017-Apr-15 18:28N 35°23' E 139°40'0 0.1
2017-Apr-15 17:58N 35°23' E 139°40'0 0.0
2017-Apr-15 17:28N 35°23' E 139°40'0 0.0
2017-Apr-15 16:58N 35°23' E 139°40'0 0.1
2017-Apr-15 16:28N 35°23' E 139°40'0 0.0
2017-Apr-15 15:58N 35°23' E 139°40'0 0.0
2017-Apr-15 15:25N 35°23' E 139°40'0 0.1
2017-Apr-15 14:58N 35°23' E 139°40'0 0.0
2017-Apr-15 14:28N 35°23' E 139°40'0 0.0
2017-Apr-15 13:25N 35°23' E 139°40'0 0.0
2017-Apr-15 12:58N 35°23' E 139°40'0 0.0
2017-Apr-15 12:28N 35°23' E 139°40'0 0.0
2017-Apr-15 11:58N 35°23' E 139°40'0 0.0
2017-Apr-15 11:28N 35°23' E 139°40'0 0.0
2017-Apr-15 10:58N 35°23' E 139°40'0 0.0
2017-Apr-15 10:28N 35°23' E 139°40'0 0.0
2017-Apr-15 09:58N 35°23' E 139°40'0 0.4
2017-Apr-15 09:31N 35°23' E 139°40'611.9
2017-Apr-15 09:00N 35°18' E 139°45'612.1
2017-Apr-15 08:30N 35°12' E 139°47'713.6
2017-Apr-15 08:00N 35°06' E 139°44'713.4
2017-Apr-15 07:30N 35°01' E 139°38'714.5
2017-Apr-15 07:00N 34°57' E 139°30'  

Dump ship's entire track history